createdAt,value
2022-12-20T00:00:42.365Z,4.40
2022-12-20T00:03:46.341Z,4.26
2022-12-20T00:06:49.360Z,4.89
2022-12-20T00:09:33.770Z,4.81
2022-12-20T00:12:24.335Z,4.69
2022-12-20T00:15:08.283Z,3.90
2022-12-20T00:17:35.417Z,3.61
2022-12-20T00:20:02.441Z,4.55
2022-12-20T00:22:29.753Z,4.35
2022-12-20T00:24:56.961Z,4.09
2022-12-20T00:27:24.255Z,3.93
2022-12-20T00:30:11.351Z,4.86
2022-12-20T00:32:56.807Z,4.76
2022-12-20T00:35:57.346Z,4.49
2022-12-20T00:38:36.905Z,3.62
2022-12-20T00:41:12.021Z,4.66
2022-12-20T00:43:40.106Z,4.45
2022-12-20T00:46:09.114Z,4.93
2022-12-20T00:48:36.652Z,4.97
2022-12-20T00:51:09.188Z,4.64
2022-12-20T00:53:37.208Z,4.86
2022-12-20T00:56:05.776Z,2.87
2022-12-20T00:58:35.608Z,4.87
2022-12-20T01:01:06.552Z,4.08
2022-12-20T01:03:34.305Z,4.58
2022-12-20T01:06:16.428Z,4.82
2022-12-20T01:09:17.372Z,5.03
2022-12-20T01:12:18.452Z,4.98
2022-12-20T01:15:20.415Z,5.13
2022-12-20T01:18:01.058Z,4.09
2022-12-20T01:20:28.359Z,4.82
2022-12-20T01:22:55.595Z,4.54
2022-12-20T01:25:42.397Z,4.69
2022-12-20T01:28:23.103Z,4.70
2022-12-20T01:31:03.517Z,4.56
2022-12-20T01:33:45.203Z,4.71
2022-12-20T01:36:16.875Z,4.99
2022-12-20T01:38:44.233Z,4.01
2022-12-20T01:41:22.945Z,3.86
2022-12-20T01:44:38.718Z,2.79
2022-12-20T01:50:31.403Z,2.86
2022-12-20T01:53:26.987Z,3.49
2022-12-20T01:56:00.618Z,4.16
2022-12-20T01:58:40.593Z,3.83
2022-12-20T02:01:22.967Z,3.98
2022-12-20T02:04:15.755Z,4.77
2022-12-20T02:07:10.450Z,3.79
2022-12-20T02:10:42.197Z,4.85
2022-12-20T02:14:07.559Z,4.15
2022-12-20T02:17:21.666Z,3.58
2022-12-20T02:20:25.249Z,5.13
2022-12-20T02:23:53.998Z,4.81
2022-12-20T02:27:18.970Z,4.79
2022-12-20T02:30:42.680Z,4.84
2022-12-20T02:33:28.752Z,3.81
2022-12-20T02:35:59.669Z,4.71
2022-12-20T02:41:32.154Z,4.87
2022-12-20T02:47:54.618Z,3.92
2022-12-20T02:50:33.318Z,2.99
2022-12-20T02:56:19.221Z,4.14
2022-12-20T02:59:42.424Z,4.80
2022-12-20T03:02:29.531Z,4.79
2022-12-20T03:14:29.756Z,4.10
2022-12-20T03:17:14.374Z,2.54
2022-12-20T03:19:54.026Z,3.84
2022-12-20T03:22:43.527Z,4.66
2022-12-20T03:25:24.571Z,3.72
2022-12-20T03:27:53.678Z,2.92
2022-12-20T03:31:07.309Z,4.64
2022-12-20T03:34:24.794Z,2.72
2022-12-20T03:37:08.076Z,4.76
2022-12-20T03:40:02.596Z,3.83
2022-12-20T03:42:38.747Z,3.56
2022-12-20T03:45:31.999Z,2.93
2022-12-20T03:48:46.741Z,2.84
2022-12-20T03:51:26.422Z,3.06
2022-12-20T03:54:22.777Z,4.69
2022-12-20T03:57:13.684Z,2.72
2022-12-20T04:00:00.101Z,4.70
2022-12-20T04:02:55.700Z,4.35
2022-12-20T04:05:36.300Z,4.56
2022-12-20T04:08:23.459Z,4.31
2022-12-20T04:11:19.292Z,3.91
2022-12-20T04:14:14.427Z,3.63
2022-12-20T04:16:56.132Z,4.05
2022-12-20T04:19:24.114Z,3.60
2022-12-20T04:21:51.232Z,3.62
2022-12-20T04:24:20.072Z,3.84
2022-12-20T04:27:13.107Z,4.46
2022-12-20T04:30:00.440Z,3.92
2022-12-20T04:32:54.829Z,3.94
2022-12-20T04:35:22.978Z,3.74
2022-12-20T04:37:50.508Z,4.14
2022-12-20T04:40:17.704Z,3.95
2022-12-20T04:43:07.463Z,3.61
2022-12-20T04:46:09.598Z,3.95
2022-12-20T04:48:57.892Z,3.78
2022-12-20T04:51:26.479Z,3.35
2022-12-20T04:53:53.699Z,4.50
2022-12-20T04:56:28.930Z,3.55
2022-12-20T04:59:03.441Z,3.77
2022-12-20T05:01:31.481Z,4.59
2022-12-20T05:03:58.679Z,4.64
2022-12-20T05:06:45.483Z,4.02
2022-12-20T05:09:26.291Z,4.25
2022-12-20T05:11:55.326Z,4.11
2022-12-20T05:14:22.393Z,3.92
2022-12-20T05:17:09.504Z,4.37
2022-12-20T05:19:50.155Z,3.78
2022-12-20T05:22:35.773Z,3.81
2022-12-20T05:25:49.871Z,3.94
2022-12-20T05:28:30.831Z,3.63
2022-12-20T05:31:17.521Z,4.10
2022-12-20T05:33:58.100Z,4.06
2022-12-20T05:36:30.000Z,4.40
2022-12-20T05:39:03.917Z,4.19
2022-12-20T05:41:32.887Z,3.94
2022-12-20T05:44:00.964Z,3.84
2022-12-20T05:46:42.581Z,4.13
2022-12-20T05:49:48.502Z,4.32
2022-12-20T05:52:30.303Z,4.62
2022-12-20T05:54:57.299Z,4.32
2022-12-20T05:57:45.539Z,3.64
2022-12-20T06:00:35.164Z,3.01
2022-12-20T06:03:02.357Z,2.89
2022-12-20T06:05:33.110Z,4.30
2022-12-20T06:08:21.526Z,4.04
2022-12-20T06:11:18.318Z,4.26
2022-12-20T06:13:51.183Z,2.97
2022-12-20T06:16:20.907Z,2.83
2022-12-20T06:18:48.107Z,2.90
2022-12-20T06:21:16.483Z,4.03
2022-12-20T06:23:44.579Z,4.18
2022-12-20T06:26:13.664Z,3.24
2022-12-20T06:28:52.777Z,3.64
2022-12-20T06:31:48.608Z,3.93
2022-12-20T06:34:29.276Z,3.54
2022-12-20T06:36:56.492Z,3.35
2022-12-20T06:39:27.195Z,3.62
2022-12-20T06:42:02.921Z,3.74
2022-12-20T06:44:30.495Z,3.78
2022-12-20T06:46:57.652Z,4.09
2022-12-20T06:49:45.830Z,2.89
2022-12-20T06:53:00.601Z,3.91
2022-12-20T06:56:02.502Z,3.96
2022-12-20T06:58:43.294Z,3.50
2022-12-20T07:01:10.283Z,3.52
2022-12-20T07:03:37.440Z,4.21
2022-12-20T07:06:24.581Z,3.99
2022-12-20T07:09:20.982Z,3.64
2022-12-20T07:11:47.846Z,3.95
2022-12-20T07:14:14.918Z,4.26
2022-12-20T07:17:01.668Z,4.20
2022-12-20T07:19:47.189Z,3.68
2022-12-20T07:22:17.689Z,3.33
2022-12-20T07:25:04.521Z,3.82
2022-12-20T07:27:52.172Z,3.76
2022-12-20T07:30:39.665Z,4.51
2022-12-20T07:33:20.465Z,3.92
2022-12-20T07:35:53.992Z,3.50
2022-12-20T07:38:22.782Z,4.02
2022-12-20T07:40:50.028Z,4.06
2022-12-20T07:43:17.038Z,4.68
2022-12-20T07:46:10.612Z,3.99
2022-12-20T07:49:12.564Z,4.15
2022-12-20T07:51:57.713Z,3.96
2022-12-20T07:54:30.378Z,4.28
2022-12-20T07:57:24.646Z,4.15
2022-12-20T08:00:26.685Z,4.56
2022-12-20T08:03:23.492Z,4.23
2022-12-20T08:05:54.005Z,4.52
2022-12-20T08:08:41.563Z,4.35
2022-12-20T08:11:24.540Z,4.56
2022-12-20T08:13:57.533Z,4.57
2022-12-20T08:16:45.596Z,4.43
2022-12-20T08:19:32.049Z,4.10
2022-12-20T08:21:59.794Z,4.27
2022-12-20T08:24:26.872Z,4.39
2022-12-20T08:26:53.935Z,4.15
2022-12-20T08:30:40.061Z,4.79
2022-12-20T08:42:28.453Z,3.93
2022-12-20T08:53:20.723Z,5.28
2022-12-20T08:56:37.579Z,4.16
2022-12-20T08:59:06.481Z,3.44
2022-12-20T09:01:39.952Z,3.25
2022-12-20T09:04:37.655Z,5.31
2022-12-20T09:07:53.614Z,4.82
2022-12-20T09:11:21.380Z,4.22
2022-12-20T09:14:22.524Z,5.44
2022-12-20T09:16:57.187Z,5.10
2022-12-20T09:19:25.959Z,4.46
2022-12-20T09:21:56.529Z,5.44
2022-12-20T09:24:24.389Z,4.69
2022-12-20T09:27:06.866Z,3.43
2022-12-20T09:29:52.953Z,5.21
2022-12-20T09:32:54.419Z,4.60
2022-12-20T09:36:16.034Z,5.30
2022-12-20T09:38:48.773Z,5.75
2022-12-20T09:42:02.841Z,5.53
2022-12-20T09:45:21.676Z,5.48
2022-12-20T09:48:26.484Z,4.49
2022-12-20T09:51:39.696Z,3.68
2022-12-20T09:54:54.400Z,5.82
2022-12-20T09:58:14.695Z,4.82
2022-12-20T10:01:05.423Z,4.44
2022-12-20T10:03:36.278Z,5.66
2022-12-20T10:07:00.816Z,5.48
2022-12-20T10:10:18.670Z,5.88
2022-12-20T10:13:35.957Z,5.99
2022-12-20T10:17:17.839Z,4.75
2022-12-20T10:20:23.152Z,6.23
2022-12-20T10:23:13.691Z,4.91
2022-12-20T10:25:42.561Z,4.42
2022-12-20T10:28:17.118Z,5.77
2022-12-20T10:31:07.783Z,5.65
2022-12-20T10:33:48.408Z,5.27
2022-12-20T10:36:19.585Z,5.65
2022-12-20T10:38:50.525Z,6.09
2022-12-20T10:41:29.799Z,6.00
2022-12-20T10:43:59.559Z,6.22
2022-12-20T10:46:45.771Z,5.42
2022-12-20T10:49:47.683Z,5.95
2022-12-20T10:52:28.293Z,5.34
2022-12-20T10:54:55.533Z,5.57
2022-12-20T10:57:26.358Z,5.55
2022-12-20T10:59:57.796Z,5.81
2022-12-20T11:02:42.005Z,5.87
2022-12-20T11:05:37.001Z,6.16
2022-12-20T11:08:46.787Z,5.34
2022-12-20T11:11:34.563Z,5.49
2022-12-20T11:14:15.997Z,4.12
2022-12-20T11:16:53.452Z,5.49
2022-12-20T11:20:00.685Z,5.75
2022-12-20T11:23:10.649Z,5.93
2022-12-20T11:26:19.246Z,6.07
2022-12-20T11:29:08.294Z,5.59
2022-12-20T11:32:30.698Z,5.56
2022-12-20T11:35:23.775Z,6.13
2022-12-20T11:38:39.363Z,5.22
2022-12-20T11:42:03.825Z,5.94
2022-12-20T11:45:33.656Z,5.80
2022-12-20T11:48:36.994Z,3.69
2022-12-20T11:51:21.461Z,3.98
2022-12-20T11:54:27.301Z,6.10
2022-12-20T11:58:02.091Z,4.30
2022-12-20T12:00:42.273Z,4.80
2022-12-20T12:03:27.385Z,5.02
2022-12-20T12:06:23.848Z,6.47
2022-12-20T12:09:47.090Z,6.40
2022-12-20T12:12:34.419Z,6.89
2022-12-20T12:15:39.563Z,6.94
2022-12-20T12:18:21.628Z,4.71
2022-12-20T12:20:57.067Z,6.33
2022-12-20T12:23:50.213Z,6.69
2022-12-20T12:26:24.782Z,5.18
2022-12-20T12:29:00.634Z,5.22
2022-12-20T12:32:00.885Z,4.45
2022-12-20T12:35:44.056Z,4.89
2022-12-20T12:39:01.995Z,5.07
2022-12-20T12:41:36.160Z,7.45
2022-12-20T12:44:41.558Z,7.04
2022-12-20T12:47:26.937Z,4.72
2022-12-20T12:50:01.344Z,7.17
2022-12-20T12:52:54.617Z,5.33
2022-12-20T12:56:12.776Z,5.61
2022-12-20T12:59:41.571Z,5.94
2022-12-20T13:02:28.995Z,7.48
2022-12-20T13:05:52.051Z,7.40
2022-12-20T13:09:23.567Z,5.68
2022-12-20T13:12:41.154Z,6.53
2022-12-20T13:22:57.927Z,6.92
2022-12-20T13:25:55.709Z,6.76
2022-12-20T13:28:25.130Z,6.53
2022-12-20T13:34:59.054Z,5.63
2022-12-20T13:37:55.018Z,5.49
2022-12-20T13:41:26.832Z,4.25
2022-12-20T13:46:58.726Z,4.66
2022-12-20T13:54:26.869Z,5.44
2022-12-20T13:57:43.557Z,4.20
2022-12-20T14:00:40.048Z,5.41
2022-12-20T16:43:37.011Z,5.19
2022-12-20T16:46:06.491Z,5.46
2022-12-20T16:48:33.951Z,5.79
2022-12-20T16:51:01.138Z,4.84
2022-12-20T16:53:34.469Z,4.97
2022-12-20T16:56:11.030Z,5.17
2022-12-20T16:59:18.653Z,4.89
2022-12-20T17:02:35.986Z,4.63
2022-12-20T17:05:32.055Z,5.29
2022-12-20T17:11:45.045Z,5.64
2022-12-20T17:14:44.004Z,5.15
2022-12-20T17:28:04.080Z,5.15
2022-12-20T17:51:17.552Z,5.71
2022-12-20T17:54:39.559Z,5.68
2022-12-20T17:57:25.208Z,3.39
2022-12-20T18:00:39.316Z,3.33
2022-12-20T18:04:23.147Z,3.47
2022-12-20T18:07:32.036Z,4.27
2022-12-20T18:10:51.015Z,5.32
2022-12-20T18:20:58.559Z,4.16
2022-12-20T18:27:30.594Z,3.40
2022-12-20T18:30:33.995Z,3.60
2022-12-20T18:33:16.665Z,5.44
2022-12-20T18:36:29.255Z,5.09
2022-12-20T18:41:53.783Z,4.27
2022-12-20T18:48:02.129Z,4.96
2022-12-20T18:50:40.202Z,3.54
2022-12-20T18:54:03.938Z,4.71
2022-12-20T18:56:59.658Z,3.99
2022-12-20T19:00:04.276Z,2.97
2022-12-20T19:02:37.418Z,4.22
2022-12-20T19:05:28.592Z,5.61
2022-12-20T19:08:52.372Z,5.02
2022-12-20T19:11:58.203Z,5.65
2022-12-20T19:14:44.365Z,4.35
2022-12-20T19:17:47.032Z,5.58
2022-12-20T19:26:45.642Z,4.52
2022-12-20T19:29:46.288Z,3.77
2022-12-20T19:32:27.462Z,4.18
2022-12-20T19:35:55.349Z,3.57
2022-12-20T19:42:13.967Z,3.63
2022-12-20T19:45:01.303Z,4.73
2022-12-20T19:47:49.030Z,3.53
2022-12-20T19:56:35.581Z,3.49
2022-12-20T19:59:35.130Z,3.53
2022-12-20T20:03:07.570Z,5.11
2022-12-20T20:05:48.082Z,5.01
2022-12-20T20:08:38.319Z,4.42
2022-12-20T20:17:47.863Z,4.15
2022-12-20T20:21:02.423Z,5.47
2022-12-20T20:23:45.935Z,5.62
2022-12-20T20:35:58.572Z,5.75
2022-12-20T20:38:50.243Z,4.37
2022-12-20T20:45:28.922Z,6.11
2022-12-20T20:48:12.961Z,4.94
2022-12-20T20:51:25.796Z,3.57
2022-12-20T20:54:29.265Z,4.47
2022-12-20T20:57:16.423Z,4.25
2022-12-20T21:00:39.368Z,3.55
2022-12-20T21:13:28.611Z,3.93
2022-12-20T21:16:19.805Z,3.17
2022-12-20T21:19:27.814Z,3.40
2022-12-20T21:22:55.999Z,3.36
2022-12-20T21:46:19.137Z,4.42
2022-12-20T21:48:47.076Z,5.37
2022-12-20T21:51:19.247Z,5.29
2022-12-20T21:54:11.153Z,4.87
2022-12-20T21:57:12.096Z,4.99
2022-12-20T21:59:39.363Z,5.01
2022-12-20T22:02:06.896Z,5.47
2022-12-20T22:04:36.429Z,5.11
2022-12-20T22:07:24.078Z,5.21
2022-12-20T22:10:04.905Z,4.85
2022-12-20T22:12:31.837Z,4.72
2022-12-20T22:14:58.835Z,4.46
2022-12-20T22:17:46.101Z,4.89
2022-12-20T22:20:26.608Z,4.45
2022-12-20T22:22:54.342Z,5.31
2022-12-20T22:25:21.497Z,4.80
2022-12-20T22:27:48.476Z,4.69
2022-12-20T22:30:15.586Z,4.21
2022-12-20T22:33:03.080Z,4.79
2022-12-20T22:36:04.103Z,5.04
2022-12-20T22:38:45.135Z,5.35
2022-12-20T22:41:37.093Z,4.94
2022-12-20T22:44:17.854Z,5.30
2022-12-20T22:46:44.713Z,4.65
2022-12-20T22:49:16.942Z,4.76
2022-12-20T22:51:46.692Z,4.27
2022-12-20T22:54:18.344Z,5.02
2022-12-20T22:56:45.353Z,5.23
2022-12-20T22:59:12.378Z,5.06
2022-12-20T23:01:39.561Z,4.90
2022-12-20T23:04:08.668Z,4.49
2022-12-20T23:06:56.097Z,5.21
2022-12-20T23:09:36.683Z,5.29
2022-12-20T23:12:22.190Z,4.58
2022-12-20T23:15:07.722Z,4.67
2022-12-20T23:17:34.732Z,4.57
2022-12-20T23:20:20.840Z,4.70
2022-12-20T23:22:47.917Z,4.85
2022-12-20T23:25:50.138Z,5.54
2022-12-20T23:28:51.161Z,5.01
2022-12-20T23:31:52.183Z,5.40
2022-12-20T23:34:32.712Z,4.67
2022-12-20T23:36:59.756Z,5.20
2022-12-20T23:39:26.787Z,4.78
2022-12-20T23:41:53.814Z,4.87
2022-12-20T23:44:20.869Z,5.41
2022-12-20T23:47:08.176Z,5.19
2022-12-20T23:50:09.149Z,5.27
2022-12-20T23:52:49.618Z,5.28
2022-12-20T23:55:16.634Z,4.48
2022-12-20T23:57:43.703Z,5.28
